Pagina principale
METAR-TAF:

METAR-TAF

Aeroporti :

Mostar, Bosnia-Erzegovina

Aeroporto Internazionale di Mostar

latitudine: 43-21N, longitudine: 017-48E, altezza: 108 m

Osservazione

Il bollettino è stato emesso 33 minuti fa, alle 09:00 UTC
Vento 3 kt da direzioni variabili
Temperature 25°C
Umidità 32%
Pressione 1017 hPa
Visibilità 10 km o più
nessuna nube inferiore a 1500 m e nessun cumulonembo

METAR: LQMO 290900Z VRB03KT CAVOK 25/07 Q1017

Ora: 11:33 (09:33 UTC)

Previsione

Il bollettino è stato emesso 4 ore e 33 minuti fa, alle 05:00 UTC
Previsione valida dal 29 alle 06 UTC al 30 alle 06 UTC
Vento 2 kt da direzioni variabili
Visibilità 10 km o più
nessuna nube inferiore a 1500 m e nessun cumulonembo
Temporaneamente
dal 29 alle 11 UTC al 29 alle 17 UTC
Vento 12 kt da sud-ovest

TAF: LQMO 290500Z 2906/3006 VRB02KT CAVOK TX30/2914Z TN13/3004Z TEMPO 2911/2917 22012KT

Osservazioni e previsioni meteorologiche di più di 4000 aeroporti (messaggi METAR e TAF).

Le stazioni disponibili sono rappresentate dai dischi gialli e rossi sulla carta.

Puntare il mouse per vedere il nome della stazione.

Clicca sopra per visualizzare le osservazioni e previsioni meteorologiche.

Per cambiare la mappa : fare clic sui pulsanti verdi con una croce nera per ingrandire, il pulsante verde con un trattino per diminuire, o sulla freccia verde per le mappe adiacenti.


METAR-TAF: